sensor_id;sensor_type;location;lat;lon;timestamp;P1;durP1;ratioP1;P2;durP2;ratioP2
83115;SDS011;72996;40.206;44.498;2023-10-19T00:00:14;18.30;;;10.75;;
83115;SDS011;72996;40.206;44.498;2023-10-19T00:02:49;20.75;;;12.32;;
83115;SDS011;72996;40.206;44.498;2023-10-19T00:05:18;23.83;;;12.77;;
83115;SDS011;72996;40.206;44.498;2023-10-19T00:07:45;25.45;;;12.52;;
83115;SDS011;72996;40.206;44.498;2023-10-19T00:10:11;25.17;;;12.90;;
83115;SDS011;72996;40.206;44.498;2023-10-19T00:12:41;23.45;;;12.77;;
83115;SDS011;72996;40.206;44.498;2023-10-19T00:15:07;24.48;;;13.57;;
83115;SDS011;72996;40.206;44.498;2023-10-19T00:17:35;22.77;;;12.95;;
83115;SDS011;72996;40.206;44.498;2023-10-19T00:20:01;24.48;;;13.82;;
83115;SDS011;72996;40.206;44.498;2023-10-19T00:22:45;23.85;;;13.55;;
83115;SDS011;72996;40.206;44.498;2023-10-19T00:25:11;23.60;;;13.63;;
83115;SDS011;72996;40.206;44.498;2023-10-19T00:27:39;21.40;;;12.95;;
83115;SDS011;72996;40.206;44.498;2023-10-19T00:30:07;28.73;;;13.82;;
83115;SDS011;72996;40.206;44.498;2023-10-19T00:32:33;25.52;;;13.45;;
83115;SDS011;72996;40.206;44.498;2023-10-19T00:35:04;26.42;;;12.98;;
83115;SDS011;72996;40.206;44.498;2023-10-19T00:37:50;26.20;;;13.52;;
83115;SDS011;72996;40.206;44.498;2023-10-19T00:40:17;24.50;;;13.93;;
83115;SDS011;72996;40.206;44.498;2023-10-19T00:42:59;22.60;;;12.45;;
83115;SDS011;72996;40.206;44.498;2023-10-19T00:45:33;27.38;;;13.60;;
83115;SDS011;72996;40.206;44.498;2023-10-19T00:48:05;24.52;;;13.68;;
83115;SDS011;72996;40.206;44.498;2023-10-19T00:50:33;28.92;;;14.23;;
83115;SDS011;72996;40.206;44.498;2023-10-19T00:53:01;25.63;;;13.80;;
83115;SDS011;72996;40.206;44.498;2023-10-19T00:55:32;26.52;;;13.68;;
83115;SDS011;72996;40.206;44.498;2023-10-19T00:57:58;26.40;;;14.25;;
83115;SDS011;72996;40.206;44.498;2023-10-19T01:00:34;29.00;;;13.07;;
83115;SDS011;72996;40.206;44.498;2023-10-19T01:03:08;26.95;;;14.48;;
83115;SDS011;72996;40.206;44.498;2023-10-19T01:05:36;24.33;;;12.90;;
83115;SDS011;72996;40.206;44.498;2023-10-19T01:08:02;25.83;;;13.85;;
83115;SDS011;72996;40.206;44.498;2023-10-19T01:10:44;24.08;;;12.68;;
83115;SDS011;72996;40.206;44.498;2023-10-19T01:13:11;22.60;;;12.93;;
83115;SDS011;72996;40.206;44.498;2023-10-19T01:15:37;24.45;;;14.38;;
83115;SDS011;72996;40.206;44.498;2023-10-19T01:18:02;26.60;;;13.52;;
83115;SDS011;72996;40.206;44.498;2023-10-19T01:20:30;21.67;;;12.90;;
83115;SDS011;72996;40.206;44.498;2023-10-19T01:22:57;20.10;;;11.90;;
83115;SDS011;72996;40.206;44.498;2023-10-19T01:28:20;21.83;;;12.13;;
83115;SDS011;72996;40.206;44.498;2023-10-19T01:30:50;23.13;;;12.43;;
83115;SDS011;72996;40.206;44.498;2023-10-19T01:33:17;22.77;;;12.52;;
83115;SDS011;72996;40.206;44.498;2023-10-19T01:35:46;21.45;;;13.27;;
83115;SDS011;72996;40.206;44.498;2023-10-19T01:38:41;23.05;;;12.38;;
83115;SDS011;72996;40.206;44.498;2023-10-19T01:41:08;21.88;;;12.82;;
83115;SDS011;72996;40.206;44.498;2023-10-19T01:43:41;21.73;;;12.25;;
83115;SDS011;72996;40.206;44.498;2023-10-19T01:46:07;21.00;;;11.60;;
83115;SDS011;72996;40.206;44.498;2023-10-19T01:48:40;20.70;;;11.90;;
83115;SDS011;72996;40.206;44.498;2023-10-19T01:51:07;22.23;;;11.98;;
83115;SDS011;72996;40.206;44.498;2023-10-19T01:53:37;22.92;;;13.77;;
83115;SDS011;72996;40.206;44.498;2023-10-19T01:56:10;22.90;;;13.32;;
83115;SDS011;72996;40.206;44.498;2023-10-19T01:58:41;21.98;;;13.40;;
83115;SDS011;72996;40.206;44.498;2023-10-19T02:01:08;22.48;;;12.55;;
83115;SDS011;72996;40.206;44.498;2023-10-19T02:03:38;21.70;;;12.80;;
83115;SDS011;72996;40.206;44.498;2023-10-19T02:06:16;23.95;;;12.45;;
83115;SDS011;72996;40.206;44.498;2023-10-19T02:11:24;23.38;;;13.77;;
83115;SDS011;72996;40.206;44.498;2023-10-19T02:13:54;21.70;;;13.85;;
83115;SDS011;72996;40.206;44.498;2023-10-19T02:16:25;20.17;;;12.45;;
83115;SDS011;72996;40.206;44.498;2023-10-19T02:18:51;25.10;;;12.45;;
83115;SDS011;72996;40.206;44.498;2023-10-19T02:21:18;20.02;;;11.35;;
83115;SDS011;72996;40.206;44.498;2023-10-19T02:23:57;22.98;;;13.35;;
83115;SDS011;72996;40.206;44.498;2023-10-19T02:26:23;25.20;;;12.65;;
83115;SDS011;72996;40.206;44.498;2023-10-19T02:28:52;23.63;;;13.05;;
83115;SDS011;72996;40.206;44.498;2023-10-19T02:31:18;21.48;;;12.02;;
83115;SDS011;72996;40.206;44.498;2023-10-19T02:33:48;21.98;;;12.77;;
83115;SDS011;72996;40.206;44.498;2023-10-19T02:36:18;19.83;;;10.55;;
83115;SDS011;72996;40.206;44.498;2023-10-19T02:38:45;22.73;;;12.68;;
83115;SDS011;72996;40.206;44.498;2023-10-19T02:41:17;24.73;;;13.57;;
83115;SDS011;72996;40.206;44.498;2023-10-19T02:43:44;22.73;;;12.95;;
83115;SDS011;72996;40.206;44.498;2023-10-19T02:46:26;22.05;;;13.00;;
83115;SDS011;72996;40.206;44.498;2023-10-19T02:48:52;20.17;;;11.82;;
83115;SDS011;72996;40.206;44.498;2023-10-19T02:51:17;21.85;;;12.15;;
83115;SDS011;72996;40.206;44.498;2023-10-19T02:53:44;21.92;;;12.43;;
83115;SDS011;72996;40.206;44.498;2023-10-19T02:56:11;20.13;;;12.00;;
83115;SDS011;72996;40.206;44.498;2023-10-19T02:58:40;19.75;;;11.38;;
83115;SDS011;72996;40.206;44.498;2023-10-19T03:01:14;19.58;;;11.60;;
83115;SDS011;72996;40.206;44.498;2023-10-19T03:03:54;21.10;;;11.93;;
83115;SDS011;72996;40.206;44.498;2023-10-19T03:06:25;22.50;;;12.45;;
83115;SDS011;72996;40.206;44.498;2023-10-19T03:08:56;25.33;;;20.83;;
83115;SDS011;72996;40.206;44.498;2023-10-19T03:11:30;24.48;;;17.13;;
83115;SDS011;72996;40.206;44.498;2023-10-19T03:13:59;25.30;;;16.05;;
83115;SDS011;72996;40.206;44.498;2023-10-19T03:16:29;22.85;;;16.02;;
83115;SDS011;72996;40.206;44.498;2023-10-19T03:18:55;21.13;;;14.25;;
83115;SDS011;72996;40.206;44.498;2023-10-19T03:21:21;26.42;;;14.20;;
83115;SDS011;72996;40.206;44.498;2023-10-19T03:23:52;22.60;;;14.85;;
83115;SDS011;72996;40.206;44.498;2023-10-19T03:26:27;20.85;;;14.02;;
83115;SDS011;72996;40.206;44.498;2023-10-19T03:28:55;24.63;;;14.50;;
83115;SDS011;72996;40.206;44.498;2023-10-19T03:31:26;26.05;;;14.93;;
83115;SDS011;72996;40.206;44.498;2023-10-19T03:33:52;24.58;;;13.98;;
83115;SDS011;72996;40.206;44.498;2023-10-19T03:36:22;24.67;;;15.68;;
83115;SDS011;72996;40.206;44.498;2023-10-19T03:38:50;26.23;;;16.25;;
83115;SDS011;72996;40.206;44.498;2023-10-19T03:41:20;24.92;;;15.30;;
83115;SDS011;72996;40.206;44.498;2023-10-19T03:43:55;24.33;;;14.45;;
83115;SDS011;72996;40.206;44.498;2023-10-19T03:46:22;23.88;;;15.45;;
83115;SDS011;72996;40.206;44.498;2023-10-19T03:49:00;23.70;;;15.65;;
83115;SDS011;72996;40.206;44.498;2023-10-19T03:51:38;21.42;;;12.70;;
83115;SDS011;72996;40.206;44.498;2023-10-19T03:54:23;25.05;;;13.00;;
83115;SDS011;72996;40.206;44.498;2023-10-19T03:56:50;21.27;;;12.23;;
83115;SDS011;72996;40.206;44.498;2023-10-19T03:59:17;23.80;;;12.75;;
83115;SDS011;72996;40.206;44.498;2023-10-19T04:01:43;22.52;;;12.45;;
83115;SDS011;72996;40.206;44.498;2023-10-19T04:04:10;24.45;;;14.10;;
83115;SDS011;72996;40.206;44.498;2023-10-19T04:06:36;25.50;;;13.73;;
83115;SDS011;72996;40.206;44.498;2023-10-19T04:09:02;21.92;;;13.70;;
83115;SDS011;72996;40.206;44.498;2023-10-19T04:11:31;25.10;;;14.60;;
83115;SDS011;72996;40.206;44.498;2023-10-19T04:14:16;24.85;;;13.27;;
83115;SDS011;72996;40.206;44.498;2023-10-19T04:16:42;39.42;;;22.58;;
83115;SDS011;72996;40.206;44.498;2023-10-19T04:19:11;30.00;;;15.82;;
83115;SDS011;72996;40.206;44.498;2023-10-19T04:21:39;27.17;;;15.32;;
83115;SDS011;72996;40.206;44.498;2023-10-19T04:24:09;59.75;;;32.28;;
83115;SDS011;72996;40.206;44.498;2023-10-19T04:26:35;26.45;;;15.82;;
83115;SDS011;72996;40.206;44.498;2023-10-19T04:29:02;26.63;;;15.70;;
83115;SDS011;72996;40.206;44.498;2023-10-19T04:31:55;33.00;;;16.35;;
83115;SDS011;72996;40.206;44.498;2023-10-19T04:34:24;32.75;;;15.95;;
83115;SDS011;72996;40.206;44.498;2023-10-19T04:36:50;26.05;;;15.23;;
83115;SDS011;72996;40.206;44.498;2023-10-19T04:39:17;27.20;;;14.05;;
83115;SDS011;72996;40.206;44.498;2023-10-19T04:41:46;26.88;;;14.88;;
83115;SDS011;72996;40.206;44.498;2023-10-19T04:44:14;30.23;;;16.38;;
83115;SDS011;72996;40.206;44.498;2023-10-19T04:46:40;28.02;;;15.75;;
83115;SDS011;72996;40.206;44.498;2023-10-19T04:49:06;28.10;;;14.88;;
83115;SDS011;72996;40.206;44.498;2023-10-19T04:51:33;26.35;;;14.95;;
83115;SDS011;72996;40.206;44.498;2023-10-19T04:54:02;27.85;;;15.80;;
83115;SDS011;72996;40.206;44.498;2023-10-19T04:56:28;29.52;;;16.88;;
83115;SDS011;72996;40.206;44.498;2023-10-19T04:58:53;31.40;;;16.90;;
83115;SDS011;72996;40.206;44.498;2023-10-19T05:01:19;31.50;;;17.52;;
83115;SDS011;72996;40.206;44.498;2023-10-19T05:03:44;30.23;;;17.60;;
83115;SDS011;72996;40.206;44.498;2023-10-19T05:06:10;35.53;;;18.02;;
83115;SDS011;72996;40.206;44.498;2023-10-19T05:08:36;33.58;;;18.27;;
83115;SDS011;72996;40.206;44.498;2023-10-19T05:11:02;32.13;;;18.50;;
83115;SDS011;72996;40.206;44.498;2023-10-19T05:13:30;33.03;;;18.65;;
83115;SDS011;72996;40.206;44.498;2023-10-19T05:15:56;27.70;;;16.20;;
83115;SDS011;72996;40.206;44.498;2023-10-19T05:18:24;31.00;;;17.75;;
83115;SDS011;72996;40.206;44.498;2023-10-19T05:20:51;27.05;;;15.02;;
83115;SDS011;72996;40.206;44.498;2023-10-19T05:23:21;28.15;;;16.02;;
83115;SDS011;72996;40.206;44.498;2023-10-19T05:25:50;32.60;;;14.82;;
83115;SDS011;72996;40.206;44.498;2023-10-19T05:28:18;24.15;;;14.18;;
83115;SDS011;72996;40.206;44.498;2023-10-19T05:30:44;18.95;;;12.15;;
83115;SDS011;72996;40.206;44.498;2023-10-19T05:33:10;19.70;;;12.15;;
83115;SDS011;72996;40.206;44.498;2023-10-19T05:35:36;21.20;;;12.25;;
83115;SDS011;72996;40.206;44.498;2023-10-19T05:38:06;18.63;;;10.82;;
83115;SDS011;72996;40.206;44.498;2023-10-19T05:40:34;18.30;;;11.13;;
83115;SDS011;72996;40.206;44.498;2023-10-19T05:43:01;16.65;;;11.27;;
83115;SDS011;72996;40.206;44.498;2023-10-19T05:45:28;19.25;;;11.15;;
83115;SDS011;72996;40.206;44.498;2023-10-19T05:47:56;16.80;;;9.50;;
83115;SDS011;72996;40.206;44.498;2023-10-19T05:50:25;15.57;;;9.55;;
83115;SDS011;72996;40.206;44.498;2023-10-19T05:52:50;18.25;;;9.43;;
83115;SDS011;72996;40.206;44.498;2023-10-19T05:55:17;16.60;;;9.32;;
83115;SDS011;72996;40.206;44.498;2023-10-19T05:57:46;17.88;;;10.80;;
83115;SDS011;72996;40.206;44.498;2023-10-19T06:00:12;15.77;;;10.60;;
83115;SDS011;72996;40.206;44.498;2023-10-19T06:02:42;16.90;;;9.60;;
83115;SDS011;72996;40.206;44.498;2023-10-19T06:05:14;15.35;;;10.05;;
83115;SDS011;72996;40.206;44.498;2023-10-19T06:07:41;15.57;;;7.72;;
83115;SDS011;72996;40.206;44.498;2023-10-19T06:10:08;17.88;;;9.93;;
83115;SDS011;72996;40.206;44.498;2023-10-19T06:12:41;20.80;;;10.98;;
83115;SDS011;72996;40.206;44.498;2023-10-19T06:15:11;18.92;;;10.23;;
83115;SDS011;72996;40.206;44.498;2023-10-19T06:17:40;15.13;;;8.93;;
83115;SDS011;72996;40.206;44.498;2023-10-19T06:20:07;16.08;;;8.98;;
83115;SDS011;72996;40.206;44.498;2023-10-19T06:22:36;14.15;;;7.80;;
83115;SDS011;72996;40.206;44.498;2023-10-19T06:25:02;14.02;;;8.10;;
83115;SDS011;72996;40.206;44.498;2023-10-19T06:27:31;16.08;;;8.50;;
83115;SDS011;72996;40.206;44.498;2023-10-19T06:29:57;12.93;;;8.02;;
83115;SDS011;72996;40.206;44.498;2023-10-19T06:32:22;13.45;;;6.75;;
83115;SDS011;72996;40.206;44.498;2023-10-19T06:34:48;12.80;;;7.50;;
83115;SDS011;72996;40.206;44.498;2023-10-19T06:37:15;11.45;;;7.28;;
83115;SDS011;72996;40.206;44.498;2023-10-19T06:39:40;12.45;;;6.90;;
83115;SDS011;72996;40.206;44.498;2023-10-19T06:42:07;10.32;;;6.60;;
83115;SDS011;72996;40.206;44.498;2023-10-19T06:44:40;12.27;;;8.02;;
83115;SDS011;72996;40.206;44.498;2023-10-19T06:47:07;15.52;;;9.05;;
83115;SDS011;72996;40.206;44.498;2023-10-19T06:49:33;10.95;;;6.43;;
83115;SDS011;72996;40.206;44.498;2023-10-19T06:51:59;11.98;;;8.00;;
83115;SDS011;72996;40.206;44.498;2023-10-19T06:54:25;11.77;;;7.30;;
83115;SDS011;72996;40.206;44.498;2023-10-19T06:56:53;18.58;;;12.50;;
83115;SDS011;72996;40.206;44.498;2023-10-19T06:59:18;11.48;;;7.50;;
83115;SDS011;72996;40.206;44.498;2023-10-19T07:01:44;11.90;;;7.18;;
83115;SDS011;72996;40.206;44.498;2023-10-19T07:04:11;9.48;;;5.22;;
83115;SDS011;72996;40.206;44.498;2023-10-19T07:06:38;9.13;;;5.97;;
83115;SDS011;72996;40.206;44.498;2023-10-19T07:09:04;10.55;;;5.88;;
83115;SDS011;72996;40.206;44.498;2023-10-19T07:11:31;10.38;;;6.30;;
83115;SDS011;72996;40.206;44.498;2023-10-19T07:16:25;12.15;;;7.38;;
83115;SDS011;72996;40.206;44.498;2023-10-19T07:18:51;13.90;;;7.97;;
83115;SDS011;72996;40.206;44.498;2023-10-19T07:21:18;13.25;;;7.03;;
83115;SDS011;72996;40.206;44.498;2023-10-19T07:23:44;13.10;;;7.03;;
83115;SDS011;72996;40.206;44.498;2023-10-19T07:26:11;13.35;;;7.00;;
83115;SDS011;72996;40.206;44.498;2023-10-19T07:28:39;9.23;;;6.15;;
83115;SDS011;72996;40.206;44.498;2023-10-19T07:31:05;9.95;;;6.15;;
83115;SDS011;72996;40.206;44.498;2023-10-19T07:33:37;11.57;;;6.38;;
83115;SDS011;72996;40.206;44.498;2023-10-19T07:36:11;13.57;;;6.90;;
83115;SDS011;72996;40.206;44.498;2023-10-19T07:38:39;10.35;;;6.38;;
83115;SDS011;72996;40.206;44.498;2023-10-19T07:41:07;12.73;;;6.75;;
83115;SDS011;72996;40.206;44.498;2023-10-19T07:43:34;11.68;;;6.80;;
83115;SDS011;72996;40.206;44.498;2023-10-19T07:46:00;10.88;;;7.35;;
83115;SDS011;72996;40.206;44.498;2023-10-19T07:48:26;12.57;;;7.47;;
83115;SDS011;72996;40.206;44.498;2023-10-19T07:50:52;15.98;;;9.20;;
83115;SDS011;72996;40.206;44.498;2023-10-19T07:53:18;13.55;;;8.07;;
83115;SDS011;72996;40.206;44.498;2023-10-19T07:55:44;14.07;;;8.50;;
83115;SDS011;72996;40.206;44.498;2023-10-19T07:58:10;15.00;;;8.55;;
83115;SDS011;72996;40.206;44.498;2023-10-19T08:00:36;12.85;;;7.72;;
83115;SDS011;72996;40.206;44.498;2023-10-19T08:03:02;14.30;;;9.05;;
83115;SDS011;72996;40.206;44.498;2023-10-19T08:07:54;12.95;;;7.50;;
83115;SDS011;72996;40.206;44.498;2023-10-19T08:10:23;13.00;;;7.22;;
83115;SDS011;72996;40.206;44.498;2023-10-19T08:12:50;13.75;;;8.38;;
83115;SDS011;72996;40.206;44.498;2023-10-19T08:15:17;13.23;;;7.88;;
83115;SDS011;72996;40.206;44.498;2023-10-19T08:17:47;15.45;;;9.00;;
83115;SDS011;72996;40.206;44.498;2023-10-19T08:20:15;13.80;;;7.85;;
83115;SDS011;72996;40.206;44.498;2023-10-19T08:22:56;15.38;;;8.95;;
83115;SDS011;72996;40.206;44.498;2023-10-19T08:25:22;14.93;;;9.52;;
83115;SDS011;72996;40.206;44.498;2023-10-19T08:27:48;18.08;;;10.00;;
83115;SDS011;72996;40.206;44.498;2023-10-19T08:30:19;85.63;;;51.40;;
83115;SDS011;72996;40.206;44.498;2023-10-19T08:32:46;15.43;;;9.60;;
83115;SDS011;72996;40.206;44.498;2023-10-19T08:35:17;16.30;;;9.50;;
83115;SDS011;72996;40.206;44.498;2023-10-19T08:37:46;15.57;;;9.63;;
83115;SDS011;72996;40.206;44.498;2023-10-19T08:40:12;16.95;;;9.70;;
83115;SDS011;72996;40.206;44.498;2023-10-19T08:42:42;18.17;;;9.27;;
83115;SDS011;72996;40.206;44.498;2023-10-19T08:45:08;10.88;;;6.53;;
83115;SDS011;72996;40.206;44.498;2023-10-19T08:47:37;12.63;;;7.78;;
83115;SDS011;72996;40.206;44.498;2023-10-19T08:50:10;10.70;;;6.22;;
83115;SDS011;72996;40.206;44.498;2023-10-19T08:52:38;10.75;;;6.10;;
83115;SDS011;72996;40.206;44.498;2023-10-19T08:55:04;11.48;;;7.20;;
83115;SDS011;72996;40.206;44.498;2023-10-19T08:57:30;11.30;;;6.68;;
83115;SDS011;72996;40.206;44.498;2023-10-19T08:59:56;10.05;;;5.55;;
83115;SDS011;72996;40.206;44.498;2023-10-19T09:02:23;11.60;;;6.30;;
83115;SDS011;72996;40.206;44.498;2023-10-19T09:04:49;10.32;;;6.43;;
83115;SDS011;72996;40.206;44.498;2023-10-19T09:07:18;9.10;;;5.20;;
83115;SDS011;72996;40.206;44.498;2023-10-19T09:09:44;8.90;;;4.93;;
83115;SDS011;72996;40.206;44.498;2023-10-19T09:12:12;11.00;;;5.68;;
83115;SDS011;72996;40.206;44.498;2023-10-19T09:14:38;13.50;;;7.03;;
83115;SDS011;72996;40.206;44.498;2023-10-19T09:17:08;13.65;;;6.47;;
83115;SDS011;72996;40.206;44.498;2023-10-19T09:19:36;10.13;;;4.78;;
83115;SDS011;72996;40.206;44.498;2023-10-19T09:22:05;9.68;;;4.80;;
83115;SDS011;72996;40.206;44.498;2023-10-19T09:24:46;8.10;;;4.57;;
83115;SDS011;72996;40.206;44.498;2023-10-19T09:27:17;7.63;;;4.18;;
83115;SDS011;72996;40.206;44.498;2023-10-19T09:29:43;8.65;;;5.30;;
83115;SDS011;72996;40.206;44.498;2023-10-19T09:32:08;9.90;;;6.10;;
83115;SDS011;72996;40.206;44.498;2023-10-19T09:34:35;9.88;;;5.18;;
83115;SDS011;72996;40.206;44.498;2023-10-19T09:37:01;9.32;;;5.35;;
83115;SDS011;72996;40.206;44.498;2023-10-19T09:39:31;9.25;;;4.90;;
83115;SDS011;72996;40.206;44.498;2023-10-19T09:42:06;9.68;;;5.95;;
83115;SDS011;72996;40.206;44.498;2023-10-19T09:47:09;10.95;;;6.45;;
83115;SDS011;72996;40.206;44.498;2023-10-19T09:49:41;10.68;;;6.25;;
83115;SDS011;72996;40.206;44.498;2023-10-19T09:52:08;9.38;;;5.30;;
83115;SDS011;72996;40.206;44.498;2023-10-19T09:54:41;5.68;;;3.20;;
83115;SDS011;72996;40.206;44.498;2023-10-19T09:57:39;7.53;;;3.70;;
83115;SDS011;72996;40.206;44.498;2023-10-19T10:00:16;6.53;;;3.70;;
83115;SDS011;72996;40.206;44.498;2023-10-19T10:02:48;9.27;;;3.80;;
83115;SDS011;72996;40.206;44.498;2023-10-19T10:10:42;8.30;;;4.35;;
83115;SDS011;72996;40.206;44.498;2023-10-19T10:15:51;10.02;;;4.72;;
83115;SDS011;72996;40.206;44.498;2023-10-19T10:18:25;7.45;;;4.50;;
83115;SDS011;72996;40.206;44.498;2023-10-19T10:23:49;6.85;;;3.25;;
83115;SDS011;72996;40.206;44.498;2023-10-19T10:26:29;7.63;;;3.95;;
83115;SDS011;72996;40.206;44.498;2023-10-19T10:29:07;7.03;;;3.42;;
83115;SDS011;72996;40.206;44.498;2023-10-19T10:31:35;10.35;;;5.43;;
83115;SDS011;72996;40.206;44.498;2023-10-19T10:34:08;11.43;;;5.88;;
83115;SDS011;72996;40.206;44.498;2023-10-19T10:39:30;7.38;;;4.10;;
83115;SDS011;72996;40.206;44.498;2023-10-19T10:42:00;7.70;;;3.70;;
83115;SDS011;72996;40.206;44.498;2023-10-19T10:47:06;8.50;;;4.63;;
83115;SDS011;72996;40.206;44.498;2023-10-19T10:49:35;10.85;;;4.82;;
83115;SDS011;72996;40.206;44.498;2023-10-19T10:52:28;7.45;;;4.78;;
83115;SDS011;72996;40.206;44.498;2023-10-19T10:55:19;7.28;;;4.60;;
83115;SDS011;72996;40.206;44.498;2023-10-19T10:57:45;11.43;;;6.38;;
83115;SDS011;72996;40.206;44.498;2023-10-19T11:00:11;8.85;;;5.00;;
83115;SDS011;72996;40.206;44.498;2023-10-19T11:02:43;10.57;;;5.40;;
83115;SDS011;72996;40.206;44.498;2023-10-19T11:05:14;7.53;;;3.60;;
83115;SDS011;72996;40.206;44.498;2023-10-19T11:07:41;7.57;;;3.67;;
83115;SDS011;72996;40.206;44.498;2023-10-19T11:10:27;6.25;;;3.55;;
83115;SDS011;72996;40.206;44.498;2023-10-19T11:13:04;7.70;;;4.30;;
83115;SDS011;72996;40.206;44.498;2023-10-19T11:15:31;7.20;;;4.03;;
83115;SDS011;72996;40.206;44.498;2023-10-19T11:17:58;9.48;;;4.35;;
83115;SDS011;72996;40.206;44.498;2023-10-19T11:20:24;9.68;;;4.50;;
83115;SDS011;72996;40.206;44.498;2023-10-19T11:22:52;8.10;;;3.90;;
83115;SDS011;72996;40.206;44.498;2023-10-19T11:25:24;7.18;;;4.20;;
83115;SDS011;72996;40.206;44.498;2023-10-19T11:30:24;7.18;;;4.53;;
83115;SDS011;72996;40.206;44.498;2023-10-19T11:32:51;9.07;;;4.13;;
83115;SDS011;72996;40.206;44.498;2023-10-19T11:38:00;8.43;;;4.50;;
83115;SDS011;72996;40.206;44.498;2023-10-19T11:40:27;11.20;;;5.57;;
83115;SDS011;72996;40.206;44.498;2023-10-19T11:42:54;9.38;;;5.55;;
83115;SDS011;72996;40.206;44.498;2023-10-19T11:45:25;9.60;;;4.88;;
83115;SDS011;72996;40.206;44.498;2023-10-19T11:47:51;9.15;;;5.18;;
83115;SDS011;72996;40.206;44.498;2023-10-19T11:50:17;9.82;;;4.88;;
83115;SDS011;72996;40.206;44.498;2023-10-19T11:52:44;10.00;;;5.20;;
83115;SDS011;72996;40.206;44.498;2023-10-19T11:55:11;19.67;;;8.15;;
83115;SDS011;72996;40.206;44.498;2023-10-19T11:57:41;11.98;;;5.70;;
83115;SDS011;72996;40.206;44.498;2023-10-19T12:00:09;10.50;;;5.35;;
83115;SDS011;72996;40.206;44.498;2023-10-19T12:02:47;11.88;;;5.55;;
83115;SDS011;72996;40.206;44.498;2023-10-19T12:05:13;11.02;;;5.75;;
83115;SDS011;72996;40.206;44.498;2023-10-19T12:07:39;10.80;;;5.28;;
83115;SDS011;72996;40.206;44.498;2023-10-19T12:10:09;9.68;;;4.90;;
83115;SDS011;72996;40.206;44.498;2023-10-19T12:12:38;10.63;;;5.30;;
83115;SDS011;72996;40.206;44.498;2023-10-19T12:15:04;7.60;;;4.03;;
83115;SDS011;72996;40.206;44.498;2023-10-19T12:17:33;9.00;;;3.67;;
83115;SDS011;72996;40.206;44.498;2023-10-19T12:19:59;7.22;;;4.32;;
83115;SDS011;72996;40.206;44.498;2023-10-19T12:22:25;8.95;;;4.30;;
83115;SDS011;72996;40.206;44.498;2023-10-19T12:24:57;11.82;;;4.40;;
83115;SDS011;72996;40.206;44.498;2023-10-19T12:27:24;8.05;;;4.65;;
83115;SDS011;72996;40.206;44.498;2023-10-19T12:29:50;9.57;;;4.40;;
83115;SDS011;72996;40.206;44.498;2023-10-19T12:32:17;6.13;;;3.40;;
83115;SDS011;72996;40.206;44.498;2023-10-19T12:34:43;5.22;;;3.03;;
83115;SDS011;72996;40.206;44.498;2023-10-19T12:37:10;8.75;;;3.95;;
83115;SDS011;72996;40.206;44.498;2023-10-19T12:39:37;5.93;;;3.10;;
83115;SDS011;72996;40.206;44.498;2023-10-19T12:42:16;6.97;;;3.85;;
83115;SDS011;72996;40.206;44.498;2023-10-19T12:44:42;7.53;;;4.20;;
83115;SDS011;72996;40.206;44.498;2023-10-19T12:47:08;7.95;;;4.25;;
83115;SDS011;72996;40.206;44.498;2023-10-19T12:49:38;9.18;;;4.90;;
83115;SDS011;72996;40.206;44.498;2023-10-19T12:52:04;7.15;;;3.88;;
83115;SDS011;72996;40.206;44.498;2023-10-19T12:54:32;8.40;;;4.05;;
83115;SDS011;72996;40.206;44.498;2023-10-19T12:57:02;6.93;;;4.03;;
83115;SDS011;72996;40.206;44.498;2023-10-19T12:59:31;6.43;;;3.75;;
83115;SDS011;72996;40.206;44.498;2023-10-19T13:01:57;5.68;;;3.67;;
83115;SDS011;72996;40.206;44.498;2023-10-19T13:04:24;7.10;;;3.75;;
83115;SDS011;72996;40.206;44.498;2023-10-19T13:06:50;7.53;;;3.58;;
83115;SDS011;72996;40.206;44.498;2023-10-19T13:09:17;6.20;;;3.50;;
83115;SDS011;72996;40.206;44.498;2023-10-19T13:11:50;6.45;;;4.18;;
83115;SDS011;72996;40.206;44.498;2023-10-19T13:14:17;7.70;;;4.50;;
83115;SDS011;72996;40.206;44.498;2023-10-19T13:16:43;8.23;;;4.25;;
83115;SDS011;72996;40.206;44.498;2023-10-19T13:19:09;7.80;;;4.13;;
83115;SDS011;72996;40.206;44.498;2023-10-19T13:21:39;8.00;;;4.70;;
83115;SDS011;72996;40.206;44.498;2023-10-19T13:24:07;8.52;;;4.53;;
83115;SDS011;72996;40.206;44.498;2023-10-19T13:26:33;10.40;;;5.97;;
83115;SDS011;72996;40.206;44.498;2023-10-19T13:28:59;12.57;;;5.45;;
83115;SDS011;72996;40.206;44.498;2023-10-19T13:31:25;7.72;;;4.25;;
83115;SDS011;72996;40.206;44.498;2023-10-19T13:33:51;8.35;;;4.40;;
83115;SDS011;72996;40.206;44.498;2023-10-19T13:36:18;6.97;;;3.97;;
83115;SDS011;72996;40.206;44.498;2023-10-19T13:38:44;8.05;;;4.05;;
83115;SDS011;72996;40.206;44.498;2023-10-19T13:41:10;7.60;;;3.72;;
83115;SDS011;72996;40.206;44.498;2023-10-19T13:43:36;10.43;;;4.70;;
83115;SDS011;72996;40.206;44.498;2023-10-19T13:46:02;6.78;;;3.67;;
83115;SDS011;72996;40.206;44.498;2023-10-19T13:48:30;8.25;;;5.07;;
83115;SDS011;72996;40.206;44.498;2023-10-19T13:50:56;8.90;;;5.32;;
83115;SDS011;72996;40.206;44.498;2023-10-19T13:53:38;8.65;;;4.97;;
83115;SDS011;72996;40.206;44.498;2023-10-19T13:56:08;9.30;;;4.82;;
83115;SDS011;72996;40.206;44.498;2023-10-19T13:58:34;8.13;;;4.30;;
83115;SDS011;72996;40.206;44.498;2023-10-19T14:01:00;8.20;;;4.80;;
83115;SDS011;72996;40.206;44.498;2023-10-19T14:03:26;7.97;;;4.38;;
83115;SDS011;72996;40.206;44.498;2023-10-19T14:05:51;7.93;;;3.88;;
83115;SDS011;72996;40.206;44.498;2023-10-19T14:08:21;8.38;;;3.88;;
83115;SDS011;72996;40.206;44.498;2023-10-19T14:10:47;9.00;;;4.90;;
83115;SDS011;72996;40.206;44.498;2023-10-19T14:13:13;8.10;;;4.90;;
83115;SDS011;72996;40.206;44.498;2023-10-19T14:15:42;10.88;;;5.78;;
83115;SDS011;72996;40.206;44.498;2023-10-19T14:18:08;9.00;;;5.20;;
83115;SDS011;72996;40.206;44.498;2023-10-19T14:20:34;7.68;;;4.93;;
83115;SDS011;72996;40.206;44.498;2023-10-19T14:23:01;8.43;;;5.07;;
83115;SDS011;72996;40.206;44.498;2023-10-19T14:25:30;11.63;;;5.47;;
83115;SDS011;72996;40.206;44.498;2023-10-19T14:27:56;16.40;;;9.43;;
83115;SDS011;72996;40.206;44.498;2023-10-19T14:30:26;11.98;;;7.40;;
83115;SDS011;72996;40.206;44.498;2023-10-19T14:32:56;8.98;;;5.80;;
83115;SDS011;72996;40.206;44.498;2023-10-19T14:35:22;11.35;;;7.07;;
83115;SDS011;72996;40.206;44.498;2023-10-19T14:37:51;12.05;;;7.38;;
83115;SDS011;72996;40.206;44.498;2023-10-19T14:40:25;11.10;;;6.55;;
83115;SDS011;72996;40.206;44.498;2023-10-19T14:42:53;9.45;;;5.38;;
83115;SDS011;72996;40.206;44.498;2023-10-19T14:45:20;10.70;;;6.40;;
83115;SDS011;72996;40.206;44.498;2023-10-19T14:47:51;11.60;;;7.45;;
83115;SDS011;72996;40.206;44.498;2023-10-19T14:50:17;10.95;;;5.22;;
83115;SDS011;72996;40.206;44.498;2023-10-19T14:52:44;9.25;;;5.93;;
83115;SDS011;72996;40.206;44.498;2023-10-19T14:55:12;11.82;;;7.78;;
83115;SDS011;72996;40.206;44.498;2023-10-19T14:57:40;13.25;;;7.35;;
83115;SDS011;72996;40.206;44.498;2023-10-19T15:00:08;12.73;;;7.60;;
83115;SDS011;72996;40.206;44.498;2023-10-19T15:02:47;14.30;;;7.25;;
83115;SDS011;72996;40.206;44.498;2023-10-19T15:05:20;15.13;;;8.35;;